NCAR-RAP Real-Time Weather Data

Output produced by METARs form (10 April 2020  07:00 UTC)
found at http://weather.rap.ucar.edu/surface/
 
KIND 100654Z 30014KT 10SM CLR 01/M02 A2994 RMK AO2 SLP142 T00111022